createdAt,value
2023-04-01T00:01:17.507Z,36.22
2023-04-01T00:03:44.877Z,68.47
2023-04-01T00:06:16.865Z,46.38
2023-04-01T00:08:45.433Z,64.03
2023-04-01T00:11:12.391Z,66.38
2023-04-01T00:13:39.154Z,65.65
2023-04-01T00:16:13.836Z,71.30
2023-04-01T00:21:15.678Z,68.55
2023-04-01T00:23:42.660Z,60.90
2023-04-01T00:26:09.461Z,63.38
2023-04-01T00:28:37.234Z,68.38
2023-04-01T00:31:08.447Z,72.07
2023-04-01T00:33:35.417Z,57.33
2023-04-01T00:36:16.833Z,56.63
2023-04-01T00:38:44.245Z,54.65
2023-04-01T00:41:15.442Z,49.45
2023-04-01T00:43:43.557Z,56.85
2023-04-01T00:46:10.442Z,48.75
2023-04-01T00:48:40.953Z,43.05
2023-04-01T00:51:19.968Z,42.55
2023-04-01T00:53:51.251Z,48.72
2023-04-01T00:56:17.941Z,51.63
2023-04-01T00:58:48.221Z,50.55
2023-04-01T01:01:15.022Z,53.72
2023-04-01T01:03:41.675Z,52.00
2023-04-01T01:06:24.206Z,42.00
2023-04-01T01:08:57.684Z,51.50
2023-04-01T01:11:43.196Z,43.28
2023-04-01T01:14:26.526Z,46.20
2023-04-01T01:16:59.923Z,53.53
2023-04-01T01:19:51.254Z,60.72
2023-04-01T01:22:34.952Z,52.72
2023-04-01T01:25:21.872Z,59.88
2023-04-01T01:27:58.638Z,55.80
2023-04-01T01:30:56.269Z,50.88
2023-04-01T01:33:36.958Z,65.13
2023-04-01T01:36:06.519Z,53.22
2023-04-01T01:38:35.340Z,54.47
2023-04-01T01:41:03.041Z,53.72
2023-04-01T01:43:33.701Z,50.75
2023-04-01T01:46:04.610Z,44.53
2023-04-01T01:48:32.382Z,46.70
2023-04-01T01:51:01.071Z,40.15
2023-04-01T01:53:27.727Z,38.85
2023-04-01T01:55:54.787Z,40.45
2023-04-01T01:58:29.082Z,42.38
2023-04-01T02:01:02.397Z,36.67
2023-04-01T02:03:32.187Z,40.75
2023-04-01T02:06:01.027Z,37.17
2023-04-01T02:08:33.772Z,40.22
2023-04-01T02:11:09.291Z,37.97
2023-04-01T02:16:46.444Z,38.85
2023-04-01T02:19:14.760Z,35.08
2023-04-01T02:21:43.279Z,33.33
2023-04-01T02:24:13.790Z,30.35
2023-04-01T02:26:41.165Z,33.35
2023-04-01T02:29:09.114Z,32.15
2023-04-01T02:31:36.133Z,30.00
2023-04-01T02:34:03.990Z,27.35
2023-04-01T02:36:30.739Z,33.97
2023-04-01T02:39:00.243Z,22.80
2023-04-01T02:41:27.228Z,23.15
2023-04-01T02:43:53.884Z,30.25
2023-04-01T02:46:20.829Z,28.88
2023-04-01T02:48:47.588Z,48.85
2023-04-01T02:51:15.520Z,31.48
2023-04-01T02:53:43.365Z,40.50
2023-04-01T02:56:10.066Z,38.05
2023-04-01T02:58:36.825Z,33.13
2023-04-01T03:01:03.535Z,40.40
2023-04-01T03:03:30.394Z,28.27
2023-04-01T03:05:57.397Z,38.50
2023-04-01T03:08:24.034Z,37.85
2023-04-01T03:10:50.744Z,54.65
2023-04-01T03:13:17.426Z,36.33
2023-04-01T03:15:44.071Z,41.45
2023-04-01T03:18:10.753Z,70.03
2023-04-01T03:20:37.394Z,79.45
2023-04-01T03:23:04.029Z,49.63
2023-04-01T03:25:31.946Z,85.50
2023-04-01T03:28:00.639Z,101.13
2023-04-01T03:30:27.827Z,56.10
2023-04-01T03:32:54.529Z,97.50
2023-04-01T03:35:21.370Z,81.30
2023-04-01T03:37:48.017Z,40.03
2023-04-01T03:40:14.676Z,49.60
2023-04-01T03:42:41.489Z,54.60
2023-04-01T03:45:08.381Z,74.85
2023-04-01T03:47:35.100Z,110.40
2023-04-01T03:50:01.837Z,31.42
2023-04-01T03:52:28.497Z,69.95
2023-04-01T03:54:55.143Z,30.30
2023-04-01T03:57:21.831Z,32.65
2023-04-01T03:59:48.525Z,25.50
2023-04-01T04:02:15.428Z,25.88
2023-04-01T04:04:42.460Z,30.80
2023-04-01T04:07:09.280Z,33.10
2023-04-01T04:09:36.257Z,34.58
2023-04-01T04:12:03.062Z,35.25
2023-04-01T04:14:29.741Z,30.38
2023-04-01T04:16:56.389Z,28.17
2023-04-01T04:19:23.128Z,30.95
2023-04-01T04:21:49.848Z,52.20
2023-04-01T04:24:16.586Z,31.38
2023-04-01T04:26:43.249Z,27.63
2023-04-01T04:29:09.946Z,21.95
2023-04-01T04:31:36.631Z,30.23
2023-04-01T04:34:03.391Z,21.17
2023-04-01T04:36:30.064Z,30.58
2023-04-01T04:38:56.889Z,20.73
2023-04-01T04:41:23.533Z,19.98
2023-04-01T04:43:56.123Z,26.83
2023-04-01T04:46:23.614Z,29.05
2023-04-01T04:48:50.363Z,28.65
2023-04-01T04:51:19.028Z,28.92
2023-04-01T04:53:45.985Z,31.58
2023-04-01T04:56:13.025Z,32.28
2023-04-01T04:58:40.487Z,39.33
2023-04-01T05:01:11.883Z,33.72
2023-04-01T05:03:39.229Z,32.38
2023-04-01T05:06:06.642Z,62.00
2023-04-01T05:08:34.029Z,53.28
2023-04-01T05:11:02.317Z,23.02
2023-04-01T05:13:29.691Z,34.03
2023-04-01T05:15:56.500Z,30.50
2023-04-01T05:18:23.380Z,33.72
2023-04-01T05:20:51.963Z,23.67
2023-04-01T05:23:19.070Z,26.33
2023-04-01T05:25:46.485Z,25.25
2023-04-01T05:28:13.230Z,29.48
2023-04-01T05:30:43.857Z,30.90
2023-04-01T05:33:11.681Z,24.35
2023-04-01T05:35:38.455Z,15.95
2023-04-01T05:38:05.374Z,26.92
2023-04-01T05:40:32.736Z,26.02
2023-04-01T05:43:00.106Z,19.52
2023-04-01T05:45:26.973Z,25.00
2023-04-01T05:47:54.019Z,14.45
2023-04-01T05:50:20.945Z,27.65
2023-04-01T05:52:47.621Z,33.40
2023-04-01T05:55:14.268Z,38.00
2023-04-01T05:57:41.032Z,40.08
2023-04-01T06:00:08.473Z,30.80
2023-04-01T06:02:35.279Z,32.58
2023-04-01T06:05:15.447Z,31.83
2023-04-01T06:07:42.140Z,30.00
2023-04-01T06:10:44.733Z,29.33
2023-04-01T06:13:11.350Z,28.60
2023-04-01T06:15:58.096Z,23.63
2023-04-01T06:18:43.476Z,17.20
2023-04-01T06:21:16.064Z,18.80
2023-04-01T06:23:42.714Z,22.17
2023-04-01T06:26:24.932Z,23.67
2023-04-01T06:29:16.293Z,31.85
2023-04-01T06:32:06.265Z,20.05
2023-04-01T06:34:48.877Z,16.98
2023-04-01T06:37:46.466Z,17.98
2023-04-01T06:40:41.543Z,14.82
2023-04-01T06:43:28.422Z,19.55
2023-04-01T06:45:59.003Z,17.27
2023-04-01T06:48:40.363Z,13.82
2023-04-01T06:51:46.559Z,16.85
2023-04-01T06:54:27.471Z,18.77
2023-04-01T06:56:59.518Z,17.25
2023-04-01T06:59:27.623Z,26.23
2023-04-01T07:01:56.640Z,16.77
2023-04-01T07:04:27.909Z,16.13
2023-04-01T07:06:58.162Z,16.95
2023-04-01T07:09:33.673Z,18.15
2023-04-01T07:12:04.033Z,21.20
2023-04-01T07:14:33.769Z,15.45
2023-04-01T07:17:19.169Z,22.48
2023-04-01T07:19:54.458Z,22.73
2023-04-01T07:22:36.506Z,16.92
2023-04-01T07:25:12.504Z,20.08
2023-04-01T07:27:39.242Z,20.92
2023-04-01T07:30:15.494Z,18.10
2023-04-01T07:32:47.795Z,15.98
2023-04-01T07:35:20.663Z,16.70
2023-04-01T07:38:02.576Z,15.38
2023-04-01T07:40:51.184Z,14.13
2023-04-01T07:43:34.340Z,17.20
2023-04-01T07:46:14.369Z,18.63
2023-04-01T07:49:07.830Z,16.38
2023-04-01T07:51:37.509Z,20.52
2023-04-01T07:54:13.202Z,14.27
2023-04-01T07:57:17.053Z,25.02
2023-04-01T08:00:16.389Z,17.45
2023-04-01T08:02:52.198Z,14.82
2023-04-01T08:05:30.541Z,21.77
2023-04-01T08:08:09.785Z,19.77
2023-04-01T08:10:52.997Z,17.98
2023-04-01T08:14:21.457Z,16.85
2023-04-01T08:17:09.800Z,18.08
2023-04-01T08:19:50.665Z,17.77
2023-04-01T08:22:21.878Z,13.18
2023-04-01T08:24:50.751Z,17.48
2023-04-01T08:27:29.951Z,20.02
2023-04-01T08:30:19.782Z,21.88
2023-04-01T08:33:18.730Z,20.88
2023-04-01T08:36:10.545Z,21.60
2023-04-01T08:38:46.481Z,16.65
2023-04-01T08:41:38.485Z,16.27
2023-04-01T08:44:37.031Z,15.02
2023-04-01T08:47:54.014Z,16.00
2023-04-01T08:50:58.293Z,21.25
2023-04-01T08:53:36.689Z,17.10
2023-04-01T08:56:07.562Z,17.50
2023-04-01T08:58:46.253Z,26.13
2023-04-01T09:01:19.599Z,20.27
2023-04-01T09:03:55.781Z,19.13
2023-04-01T09:06:40.954Z,22.92
2023-04-01T09:09:28.458Z,15.20
2023-04-01T09:14:52.044Z,19.88
2023-04-01T09:17:43.048Z,24.88
2023-04-01T09:20:47.123Z,24.98
2023-04-01T09:23:26.022Z,25.67
2023-04-01T09:26:07.777Z,28.05
2023-04-01T09:28:46.452Z,29.50
2023-04-01T09:31:45.896Z,26.45
2023-04-01T09:34:34.390Z,30.42
2023-04-01T09:37:05.419Z,26.50
2023-04-01T09:39:39.605Z,32.63
2023-04-01T09:42:35.496Z,23.35
2023-04-01T09:45:09.051Z,19.83
2023-04-01T09:48:09.746Z,26.20
2023-04-01T09:50:53.878Z,31.35
2023-04-01T09:53:26.723Z,38.28
2023-04-01T09:56:28.567Z,22.30
2023-04-01T09:58:55.258Z,26.98
2023-04-01T10:01:32.427Z,25.00
2023-04-01T10:04:01.816Z,18.27
2023-04-01T10:07:05.756Z,23.83
2023-04-01T10:09:54.019Z,21.77
2023-04-01T10:12:43.338Z,20.40
2023-04-01T10:15:31.132Z,24.25
2023-04-01T10:18:01.303Z,19.25
2023-04-01T10:20:43.511Z,23.10
2023-04-01T10:23:10.163Z,22.88
2023-04-01T10:25:58.578Z,24.15
2023-04-01T10:28:55.867Z,26.73
2023-04-01T10:31:44.285Z,22.55
2023-04-01T10:34:28.028Z,33.15
2023-04-01T10:36:57.080Z,24.85
2023-04-01T10:42:24.028Z,20.42
2023-04-01T10:45:24.817Z,25.67
2023-04-01T10:48:28.682Z,21.83
2023-04-01T10:51:32.661Z,17.20
2023-04-01T10:54:30.329Z,22.40
2023-04-01T10:57:02.320Z,24.20
2023-04-01T10:59:55.674Z,25.77
2023-04-01T11:03:20.652Z,21.50
2023-04-01T11:05:56.255Z,18.25
2023-04-01T11:08:53.882Z,17.35
2023-04-01T11:12:15.999Z,20.92
2023-04-01T11:15:19.814Z,19.33
2023-04-01T11:18:04.496Z,21.27
2023-04-01T11:20:55.685Z,16.60
2023-04-01T11:24:05.101Z,19.10
2023-04-01T11:26:58.478Z,18.40
2023-04-01T11:29:59.682Z,20.55
2023-04-01T11:32:33.712Z,18.13
2023-04-01T11:35:40.173Z,18.13
2023-04-01T11:38:15.964Z,22.15
2023-04-01T11:41:10.230Z,23.60
2023-04-01T11:43:42.984Z,36.58
2023-04-01T11:46:12.140Z,29.10
2023-04-01T11:48:41.492Z,25.35
2023-04-01T11:51:29.885Z,19.70
2023-04-01T11:54:17.471Z,24.17
2023-04-01T11:56:56.365Z,21.50
2023-04-01T11:59:47.632Z,24.67
2023-04-01T12:02:38.413Z,17.17
2023-04-01T12:05:29.430Z,22.38
2023-04-01T12:08:02.088Z,26.17
2023-04-01T12:10:49.971Z,34.42
2023-04-01T12:13:28.714Z,21.67
2023-04-01T12:16:08.930Z,24.08
2023-04-01T12:18:53.654Z,25.65
2023-04-01T12:21:40.336Z,22.85
2023-04-01T12:24:16.482Z,25.38
2023-04-01T12:27:18.234Z,19.27
2023-04-01T12:29:56.443Z,19.77
2023-04-01T12:32:50.451Z,23.77
2023-04-01T12:35:20.057Z,19.08
2023-04-01T12:38:24.966Z,19.23
2023-04-01T12:40:57.829Z,18.70
2023-04-01T12:43:47.114Z,33.92
2023-04-01T12:46:27.100Z,23.42
2023-04-01T12:49:17.981Z,19.15
2023-04-01T12:52:10.608Z,22.42
2023-04-01T12:54:55.935Z,31.25
2023-04-01T12:57:31.321Z,22.38
2023-04-01T13:00:22.561Z,23.05
2023-04-01T13:03:07.727Z,16.60
2023-04-01T13:05:46.352Z,22.15
2023-04-01T13:08:21.869Z,24.08
2023-04-01T13:11:02.619Z,27.48
2023-04-01T13:13:47.743Z,26.42
2023-04-01T13:16:54.523Z,29.92
2023-04-01T13:19:40.558Z,18.50
2023-04-01T13:22:16.678Z,22.83
2023-04-01T13:25:15.628Z,28.27
2023-04-01T13:27:45.450Z,26.73
2023-04-01T13:30:21.213Z,28.45
2023-04-01T13:33:16.233Z,31.85
2023-04-01T13:35:55.099Z,25.67
2023-04-01T13:38:21.698Z,30.60
2023-04-01T13:41:03.498Z,25.10
2023-04-01T13:43:30.932Z,24.90
2023-04-01T13:46:06.678Z,22.27
2023-04-01T13:49:11.413Z,28.35
2023-04-01T13:51:59.227Z,27.00
2023-04-01T13:54:43.734Z,30.08
2023-04-01T13:57:34.713Z,26.33
2023-04-01T14:00:12.215Z,22.10
2023-04-01T14:02:57.082Z,22.85
2023-04-01T14:05:44.206Z,22.15
2023-04-01T14:08:28.922Z,20.55
2023-04-01T14:10:58.172Z,18.20
2023-04-01T14:13:43.248Z,19.55
2023-04-01T14:16:12.758Z,21.38
2023-04-01T14:19:20.785Z,19.98
2023-04-01T14:22:21.315Z,22.67
2023-04-01T14:25:23.481Z,21.73
2023-04-01T14:28:05.192Z,18.33
2023-04-01T14:30:45.216Z,25.20
2023-04-01T14:33:35.833Z,22.20
2023-04-01T14:36:19.946Z,22.25
2023-04-01T14:39:01.510Z,21.35
2023-04-01T14:41:46.904Z,21.60
2023-04-01T14:44:37.042Z,17.58
2023-04-01T14:47:16.645Z,20.80
2023-04-01T14:49:44.579Z,20.45
2023-04-01T14:52:30.358Z,19.35
2023-04-01T14:54:57.825Z,19.92
2023-04-01T14:57:33.714Z,25.33
2023-04-01T15:00:18.377Z,22.95
2023-04-01T15:03:04.758Z,19.42
2023-04-01T15:05:50.147Z,23.33
2023-04-01T15:08:42.671Z,22.02
2023-04-01T15:11:12.287Z,23.50
2023-04-01T15:14:06.385Z,22.20
2023-04-01T15:16:56.053Z,21.60
2023-04-01T15:19:28.695Z,16.52
2023-04-01T15:22:52.577Z,20.42
2023-04-01T15:25:24.888Z,21.20
2023-04-01T15:28:00.503Z,19.90
2023-04-01T15:31:06.356Z,19.80
2023-04-01T15:33:47.962Z,21.92
2023-04-01T15:36:41.324Z,20.08
2023-04-01T15:39:16.590Z,19.55
2023-04-01T15:42:09.255Z,21.00
2023-04-01T15:44:44.950Z,20.17
2023-04-01T15:47:26.943Z,18.15
2023-04-01T15:50:15.219Z,23.30
2023-04-01T15:52:53.769Z,28.85
2023-04-01T15:55:36.763Z,27.70
2023-04-01T15:58:20.482Z,24.17
2023-04-01T16:01:20.516Z,23.67
2023-04-01T16:06:35.197Z,36.72
2023-04-01T16:09:29.310Z,31.77
2023-04-01T16:12:12.922Z,28.80
2023-04-01T16:15:04.657Z,37.92
2023-04-01T16:17:40.511Z,46.70
2023-04-01T16:20:22.606Z,30.17
2023-04-01T16:23:18.306Z,24.45
2023-04-01T16:25:48.504Z,36.90
2023-04-01T16:28:35.670Z,26.67
2023-04-01T16:31:15.753Z,30.13
2023-04-01T16:34:05.113Z,25.05
2023-04-01T16:36:40.893Z,44.55
2023-04-01T16:39:39.820Z,31.55
2023-04-01T16:42:32.063Z,32.15
2023-04-01T16:45:07.524Z,21.55
2023-04-01T16:47:40.632Z,37.83
2023-04-01T16:50:24.569Z,30.40
2023-04-01T16:53:17.769Z,28.38
2023-04-01T16:55:57.930Z,35.70
2023-04-01T16:58:38.554Z,29.38
2023-04-01T17:01:08.968Z,33.28
2023-04-01T17:03:45.386Z,30.83
2023-04-01T17:06:37.317Z,27.77
2023-04-01T17:09:20.845Z,37.65
2023-04-01T17:12:13.911Z,30.23
2023-04-01T17:15:07.259Z,36.85
2023-04-01T17:17:53.065Z,29.90
2023-04-01T17:20:29.059Z,34.42
2023-04-01T17:22:56.785Z,27.70
2023-04-01T17:25:42.056Z,26.83
2023-04-01T17:28:29.944Z,31.02
2023-04-01T17:31:32.337Z,28.27
2023-04-01T17:34:04.524Z,24.08
2023-04-01T17:36:43.305Z,31.75
2023-04-01T17:39:27.965Z,29.40
2023-04-01T17:42:17.359Z,27.90
2023-04-01T17:44:49.972Z,28.80
2023-04-01T17:47:26.302Z,23.08
2023-04-01T17:50:17.827Z,26.13
2023-04-01T17:53:14.008Z,27.08
2023-04-01T17:56:05.185Z,23.45
2023-04-01T17:58:51.904Z,26.70
2023-04-01T18:01:18.534Z,27.00
2023-04-01T18:04:22.738Z,24.88
2023-04-01T18:07:26.696Z,24.35
2023-04-01T18:10:13.235Z,29.55
2023-04-01T18:13:01.847Z,24.85
2023-04-01T18:15:52.164Z,25.75
2023-04-01T18:18:39.341Z,29.10
2023-04-01T18:21:26.263Z,28.20
2023-04-01T18:24:02.757Z,25.20
2023-04-01T18:26:35.017Z,22.08
2023-04-01T18:29:35.504Z,21.63
2023-04-01T18:32:33.844Z,25.85
2023-04-01T18:35:34.353Z,22.35
2023-04-01T18:38:03.943Z,20.45
2023-04-01T18:40:30.554Z,22.35
2023-04-01T18:43:14.277Z,33.33
2023-04-01T18:46:02.953Z,29.45
2023-04-01T18:48:53.881Z,31.27
2023-04-01T18:51:32.751Z,29.30
2023-04-01T18:54:00.311Z,27.35
2023-04-01T18:56:36.364Z,23.20
2023-04-01T18:59:11.857Z,24.40
2023-04-01T19:02:12.565Z,27.60
2023-04-01T19:05:08.472Z,16.15
2023-04-01T19:07:40.722Z,12.35
2023-04-01T19:10:49.030Z,9.50
2023-04-01T19:13:32.495Z,11.07
2023-04-01T19:16:08.082Z,10.45
2023-04-01T19:18:54.978Z,13.38
2023-04-01T19:21:36.818Z,13.30
2023-04-01T19:24:22.208Z,10.75
2023-04-01T19:27:37.697Z,13.38
2023-04-01T19:30:18.907Z,15.25
2023-04-01T19:33:23.418Z,13.98
2023-04-01T19:36:25.564Z,12.05
2023-04-01T19:39:12.073Z,15.00
2023-04-01T19:42:07.753Z,18.67
2023-04-01T19:44:59.093Z,16.60
2023-04-01T19:47:51.846Z,19.52
2023-04-01T19:50:38.070Z,20.38
2023-04-01T19:53:33.150Z,16.67
2023-04-01T19:56:14.321Z,16.10
2023-04-01T19:58:46.806Z,14.23
2023-04-01T20:01:22.007Z,15.55
2023-04-01T20:04:11.234Z,17.08
2023-04-01T20:07:05.551Z,12.52
2023-04-01T20:09:53.738Z,14.57
2023-04-01T20:12:32.572Z,12.65
2023-04-01T20:15:00.120Z,10.63
2023-04-01T20:17:39.032Z,10.30
2023-04-01T20:20:11.650Z,12.82
2023-04-01T20:22:38.230Z,9.52
2023-04-01T20:25:16.078Z,10.98
2023-04-01T20:27:48.716Z,13.13
2023-04-01T20:30:34.406Z,14.93
2023-04-01T20:33:27.425Z,9.93
2023-04-01T20:36:42.572Z,11.50
2023-04-01T20:39:27.565Z,14.23
2023-04-01T20:42:12.598Z,9.63
2023-04-01T20:45:26.502Z,12.02
2023-04-01T20:48:24.832Z,13.48
2023-04-01T20:51:06.291Z,20.15
2023-04-01T20:53:52.153Z,13.13
2023-04-01T20:56:57.547Z,13.43
2023-04-01T20:59:25.020Z,12.98
2023-04-01T21:02:06.717Z,12.93
2023-04-01T21:05:01.869Z,11.50
2023-04-01T21:07:28.521Z,9.70
2023-04-01T21:10:13.724Z,12.00
2023-04-01T21:13:01.282Z,8.35
2023-04-01T21:15:57.864Z,10.18
2023-04-01T21:18:37.624Z,9.02
2023-04-01T21:21:13.186Z,8.40
2023-04-01T21:23:42.528Z,12.75
2023-04-01T21:29:01.747Z,17.52
2023-04-01T21:34:26.508Z,21.70
2023-04-01T21:37:05.628Z,18.30
2023-04-01T21:40:23.268Z,20.17
2023-04-01T21:43:10.703Z,23.42
2023-04-01T21:46:05.382Z,18.83
2023-04-01T21:48:37.955Z,21.80
2023-04-01T21:51:16.088Z,19.48
2023-04-01T21:53:42.704Z,16.80
2023-04-01T21:56:19.823Z,17.33
2023-04-01T21:59:14.277Z,15.35
2023-04-01T22:01:59.180Z,22.40
2023-04-01T22:04:34.771Z,19.33
2023-04-01T22:07:11.350Z,18.58
2023-04-01T22:09:42.306Z,20.65
2023-04-01T22:12:39.517Z,18.40
2023-04-01T22:15:33.478Z,17.65
2023-04-01T22:18:15.304Z,20.65
2023-04-01T22:23:15.553Z,18.15
2023-04-01T22:28:51.093Z,21.23
2023-04-01T22:31:23.336Z,20.15
2023-04-01T22:33:54.238Z,20.48
2023-04-01T22:36:57.295Z,19.80
2023-04-01T22:39:55.877Z,20.35
2023-04-01T22:42:40.040Z,22.90
2023-04-01T22:45:13.082Z,22.58
2023-04-01T22:47:52.551Z,21.73
2023-04-01T22:50:21.665Z,17.35
2023-04-01T22:52:49.442Z,17.63
2023-04-01T22:55:27.076Z,22.58
2023-04-01T22:58:10.016Z,20.05
2023-04-01T23:01:01.166Z,18.58
2023-04-01T23:03:36.846Z,19.35
2023-04-01T23:06:05.465Z,18.35
2023-04-01T23:11:22.944Z,18.27
2023-04-01T23:14:24.765Z,18.27
2023-04-01T23:17:10.166Z,12.68
2023-04-01T23:19:39.203Z,10.88
2023-04-01T23:22:26.394Z,10.38
2023-04-01T23:25:39.767Z,13.00
2023-04-01T23:28:26.182Z,10.60
2023-04-01T23:30:53.709Z,8.48
2023-04-01T23:33:22.616Z,9.57
2023-04-01T23:36:06.124Z,11.48
2023-04-01T23:38:36.743Z,8.95
2023-04-01T23:41:04.386Z,7.45
2023-04-01T23:43:38.496Z,6.30
2023-04-01T23:46:07.169Z,5.88
2023-04-01T23:48:54.086Z,5.57
2023-04-01T23:51:24.448Z,5.75
2023-04-01T23:54:01.193Z,5.72
2023-04-01T23:56:44.379Z,5.35
2023-04-01T23:59:20.597Z,5.50
